createdAt,value
2023-03-31T00:02:13.860Z,99770.88
2023-03-31T00:05:18.367Z,99766.84
2023-03-31T00:08:21.499Z,99756.50
2023-03-31T00:11:23.777Z,99763.69
2023-03-31T00:14:26.577Z,99758.03
2023-03-31T00:17:33.306Z,99752.69
2023-03-31T00:20:38.263Z,99749.72
2023-03-31T00:23:43.783Z,99750.25
2023-03-31T00:26:46.149Z,99740.91
2023-03-31T00:29:50.812Z,99738.56
2023-03-31T00:32:53.373Z,99731.53
2023-03-31T00:35:56.445Z,99742.75
2023-03-31T00:39:09.558Z,99730.72
2023-03-31T00:42:15.517Z,99733.69
2023-03-31T00:45:24.253Z,99735.16
2023-03-31T00:48:27.740Z,99726.56
2023-03-31T00:51:32.648Z,99720.66
2023-03-31T00:54:36.687Z,99732.38
2023-03-31T00:57:39.897Z,99728.34
2023-03-31T01:00:42.794Z,99721.09
2023-03-31T01:03:46.937Z,99725.28
2023-03-31T01:07:00.940Z,99727.53
2023-03-31T01:10:05.296Z,99726.00
2023-03-31T01:13:11.935Z,99725.75
2023-03-31T01:16:14.385Z,99728.34
2023-03-31T01:19:29.178Z,99714.50
2023-03-31T01:23:07.224Z,99712.38
2023-03-31T01:26:43.416Z,99726.41
2023-03-31T01:30:04.618Z,99732.06
2023-03-31T01:33:17.457Z,99739.59
2023-03-31T01:36:29.283Z,99730.91
2023-03-31T01:39:43.744Z,99731.47
2023-03-31T01:43:02.030Z,99732.63
2023-03-31T01:46:33.842Z,99732.69
2023-03-31T01:49:43.643Z,99726.78
2023-03-31T01:52:56.859Z,99726.41
2023-03-31T01:56:12.963Z,99729.66
2023-03-31T01:59:29.595Z,99726.88
2023-03-31T02:02:37.780Z,99726.84
2023-03-31T02:05:47.988Z,99728.97
2023-03-31T02:08:56.302Z,99715.88
2023-03-31T02:12:00.740Z,99721.00
2023-03-31T02:15:06.312Z,99712.59
2023-03-31T02:18:11.701Z,99720.25
2023-03-31T02:21:16.576Z,99716.00
2023-03-31T02:24:20.899Z,99725.53
2023-03-31T02:27:43.232Z,99712.00
2023-03-31T02:30:45.710Z,99712.81
2023-03-31T02:33:48.988Z,99711.66
2023-03-31T02:36:51.370Z,99711.56
2023-03-31T02:39:56.003Z,99700.47
2023-03-31T02:42:58.408Z,99706.03
2023-03-31T02:46:00.799Z,99690.97
2023-03-31T02:49:07.452Z,99699.44
2023-03-31T02:52:25.455Z,99710.28
2023-03-31T02:55:52.496Z,99704.16
2023-03-31T02:59:16.983Z,99704.31
2023-03-31T03:02:27.205Z,99698.63
2023-03-31T03:05:35.032Z,99702.00
2023-03-31T03:09:09.043Z,99690.50
2023-03-31T03:12:16.887Z,99692.59
2023-03-31T03:15:32.008Z,99684.72
2023-03-31T03:18:34.727Z,99696.03
2023-03-31T03:21:37.122Z,99692.72
2023-03-31T03:24:40.175Z,99681.38
2023-03-31T03:27:42.624Z,99681.78
2023-03-31T03:30:45.079Z,99684.34
2023-03-31T03:33:47.510Z,99683.94
2023-03-31T03:36:49.795Z,99684.81
2023-03-31T03:39:52.148Z,99683.91
2023-03-31T03:42:54.897Z,99676.50
2023-03-31T03:45:57.774Z,99671.28
2023-03-31T03:49:00.291Z,99688.00
2023-03-31T03:52:03.118Z,99688.78
2023-03-31T03:55:07.097Z,99687.28
2023-03-31T03:58:09.604Z,99691.63
2023-03-31T04:01:11.908Z,99696.63
2023-03-31T04:04:14.564Z,99679.91
2023-03-31T04:07:17.594Z,99703.28
2023-03-31T04:10:19.888Z,99698.41
2023-03-31T04:13:22.210Z,99707.75
2023-03-31T04:16:25.611Z,99697.91
2023-03-31T04:19:27.990Z,99695.63
2023-03-31T04:22:34.980Z,99695.06
2023-03-31T04:25:38.716Z,99699.50
2023-03-31T04:28:42.972Z,99700.69
2023-03-31T04:31:45.572Z,99691.94
2023-03-31T04:34:50.773Z,99692.06
2023-03-31T04:37:59.206Z,99700.50
2023-03-31T04:41:01.817Z,99680.28
2023-03-31T04:44:04.385Z,99676.34
2023-03-31T04:47:07.162Z,99673.22
2023-03-31T04:50:16.172Z,99675.16
2023-03-31T04:53:19.483Z,99682.78
2023-03-31T04:56:22.967Z,99678.59
2023-03-31T04:59:25.481Z,99684.25
2023-03-31T05:02:27.805Z,99675.47
2023-03-31T05:05:30.540Z,99666.84
2023-03-31T05:08:34.181Z,99678.13
2023-03-31T05:11:39.510Z,99663.44
2023-03-31T05:14:41.883Z,99666.31
2023-03-31T05:17:45.009Z,99656.81
2023-03-31T05:20:47.377Z,99668.25
2023-03-31T05:23:50.278Z,99658.25
2023-03-31T05:26:53.120Z,99652.56
2023-03-31T05:29:55.713Z,99675.31
2023-03-31T05:32:58.196Z,99649.28
2023-03-31T05:36:00.946Z,99659.84
2023-03-31T05:39:05.586Z,99644.44
2023-03-31T05:42:07.993Z,99681.03
2023-03-31T05:45:10.631Z,99661.91
2023-03-31T05:48:13.191Z,99655.16
2023-03-31T05:51:15.553Z,99650.63
2023-03-31T05:54:17.842Z,99658.88
2023-03-31T05:57:20.459Z,99652.28
2023-03-31T06:00:23.032Z,99642.91
2023-03-31T06:03:25.730Z,99647.31
2023-03-31T06:06:28.095Z,99639.25
2023-03-31T06:09:31.816Z,99647.25
2023-03-31T06:12:34.666Z,99631.84
2023-03-31T06:15:36.996Z,99643.41
2023-03-31T06:18:40.684Z,99645.44
2023-03-31T06:21:50.495Z,99626.19
2023-03-31T06:24:54.212Z,99641.84
2023-03-31T06:27:56.523Z,99639.25
2023-03-31T06:31:10.289Z,99637.72
2023-03-31T06:34:13.481Z,99640.06
2023-03-31T06:37:15.939Z,99641.72
2023-03-31T06:40:18.752Z,99641.94
2023-03-31T06:43:21.240Z,99641.72
2023-03-31T06:46:24.779Z,99613.47
2023-03-31T06:50:52.775Z,99641.22
2023-03-31T06:53:56.284Z,99623.31
2023-03-31T06:56:59.213Z,99629.19
2023-03-31T07:00:01.622Z,99603.63
2023-03-31T07:03:04.828Z,99623.25
2023-03-31T07:06:07.503Z,99613.31
2023-03-31T07:09:09.808Z,99633.25
2023-03-31T07:12:12.199Z,99629.94
2023-03-31T07:15:14.760Z,99632.84
2023-03-31T07:18:19.207Z,99661.78
2023-03-31T07:21:21.656Z,99644.97
2023-03-31T07:24:24.526Z,99639.38
2023-03-31T07:27:28.433Z,99641.72
2023-03-31T07:30:30.755Z,99617.84
2023-03-31T07:33:33.089Z,99602.09
2023-03-31T07:36:35.884Z,99614.34
2023-03-31T07:39:41.319Z,99591.88
2023-03-31T07:42:46.494Z,99585.34
2023-03-31T07:45:50.436Z,99605.13
2023-03-31T07:48:54.080Z,99578.72
2023-03-31T07:51:57.182Z,99595.56
2023-03-31T07:54:59.572Z,99591.66
2023-03-31T07:58:02.212Z,99572.50
2023-03-31T08:01:04.991Z,99574.31
2023-03-31T08:04:08.980Z,99570.38
2023-03-31T08:07:14.458Z,99581.69
2023-03-31T08:10:20.506Z,99581.88
2023-03-31T08:13:25.390Z,99579.38
2023-03-31T08:16:27.936Z,99572.47
2023-03-31T08:19:30.497Z,99554.56
2023-03-31T08:22:32.798Z,99548.16
2023-03-31T08:25:35.511Z,99541.50
2023-03-31T08:28:37.976Z,99534.16
2023-03-31T08:31:40.537Z,99542.38
2023-03-31T08:34:43.097Z,99549.75
2023-03-31T08:37:45.398Z,99533.47
2023-03-31T08:40:47.689Z,99533.19
2023-03-31T08:43:50.387Z,99522.47
2023-03-31T08:46:55.316Z,99521.19
2023-03-31T08:50:01.102Z,99516.34
2023-03-31T08:53:07.050Z,99518.34
2023-03-31T08:56:16.728Z,99505.16
2023-03-31T09:01:08.750Z,99496.03
2023-03-31T09:04:19.752Z,99473.59
2023-03-31T09:07:39.263Z,99480.88
2023-03-31T09:10:53.510Z,99465.81
2023-03-31T09:14:18.553Z,99472.47
2023-03-31T09:17:25.993Z,99463.72
2023-03-31T09:20:37.568Z,99442.75
2023-03-31T09:44:49.998Z,99430.47
2023-03-31T09:48:09.316Z,99423.91
2023-03-31T09:51:30.790Z,99429.34
2023-03-31T09:54:45.834Z,99417.94
2023-03-31T09:57:48.184Z,99430.41
2023-03-31T10:01:03.111Z,99417.03
2023-03-31T10:04:08.789Z,99390.81
2023-03-31T10:07:11.893Z,99411.38
2023-03-31T10:10:44.386Z,99377.00
2023-03-31T10:13:49.975Z,99393.25
2023-03-31T10:16:56.824Z,99379.38
2023-03-31T10:20:09.230Z,99384.34
2023-03-31T10:23:16.874Z,99378.03
2023-03-31T10:26:22.604Z,99345.94
2023-03-31T10:29:34.414Z,99347.34
2023-03-31T10:32:43.825Z,99352.91
2023-03-31T10:35:49.759Z,99351.38
2023-03-31T10:38:57.379Z,99337.47
2023-03-31T10:41:59.889Z,99341.56
2023-03-31T10:45:36.632Z,99342.94
2023-03-31T10:48:42.402Z,99344.50
2023-03-31T10:51:56.522Z,99329.19
2023-03-31T10:55:01.699Z,99351.44
2023-03-31T10:58:25.066Z,99336.75
2023-03-31T11:01:49.510Z,99337.44
2023-03-31T11:05:22.537Z,99337.47
2023-03-31T11:08:28.824Z,99332.38
2023-03-31T11:11:49.732Z,99326.75
2023-03-31T11:15:04.242Z,99333.63
2023-03-31T11:18:17.007Z,99319.09
2023-03-31T11:21:28.446Z,99322.13
2023-03-31T11:24:44.218Z,99311.44
2023-03-31T11:28:18.999Z,99302.00
2023-03-31T11:31:34.222Z,99293.00
2023-03-31T11:34:55.172Z,99286.63
2023-03-31T11:38:24.014Z,99271.56
2023-03-31T11:41:38.788Z,99240.38
2023-03-31T11:44:53.590Z,99234.66
2023-03-31T11:48:05.495Z,99239.31
2023-03-31T11:51:16.839Z,99203.31
2023-03-31T11:54:37.174Z,99218.44
2023-03-31T11:57:45.586Z,99206.59
2023-03-31T12:01:28.700Z,99205.19
2023-03-31T12:04:52.301Z,99191.63
2023-03-31T12:08:03.770Z,99196.38
2023-03-31T12:11:20.232Z,99186.44
2023-03-31T12:14:46.207Z,99182.53
2023-03-31T12:18:00.016Z,99178.22
2023-03-31T12:21:03.876Z,99149.03
2023-03-31T12:24:08.403Z,99162.75
2023-03-31T12:27:16.882Z,99175.19
2023-03-31T12:30:34.626Z,99178.63
2023-03-31T12:33:46.491Z,99164.50
2023-03-31T12:37:16.803Z,99166.66
2023-03-31T12:40:41.644Z,99145.78
2023-03-31T12:44:15.188Z,99143.97
2023-03-31T12:47:44.719Z,99139.53
2023-03-31T12:51:02.265Z,99141.50
2023-03-31T12:54:34.545Z,99122.50
2023-03-31T12:57:37.389Z,99114.53
2023-03-31T13:01:11.978Z,99119.00
2023-03-31T13:04:21.515Z,99111.41
2023-03-31T13:07:29.034Z,99118.59
2023-03-31T13:10:33.809Z,99093.72
2023-03-31T13:17:22.396Z,99087.13
2023-03-31T13:20:30.979Z,99099.56
2023-03-31T13:23:38.553Z,99076.59
2023-03-31T13:26:46.880Z,99058.91
2023-03-31T13:29:53.232Z,99020.66
2023-03-31T13:33:22.005Z,99054.44
2023-03-31T13:36:51.090Z,99054.97
2023-03-31T13:40:13.580Z,99038.19
2023-03-31T13:43:56.393Z,99040.22
2023-03-31T13:47:31.522Z,99023.59
2023-03-31T13:50:41.902Z,98991.97
2023-03-31T13:53:54.790Z,99015.25
2023-03-31T13:57:51.569Z,99014.56
2023-03-31T14:01:17.229Z,99001.69
2023-03-31T14:04:31.744Z,99001.81
2023-03-31T14:07:46.509Z,99004.84
2023-03-31T14:10:48.836Z,98978.91
2023-03-31T14:14:13.070Z,98994.81
2023-03-31T14:17:16.381Z,98988.63
2023-03-31T14:20:42.916Z,98978.25
2023-03-31T14:23:53.975Z,98973.69
2023-03-31T14:27:12.112Z,98970.28
2023-03-31T14:30:41.157Z,98935.69
2023-03-31T14:34:06.904Z,98932.63
2023-03-31T14:37:17.982Z,98898.31
2023-03-31T14:40:20.635Z,98927.22
2023-03-31T14:43:46.507Z,98898.00
2023-03-31T14:46:48.856Z,98905.97
2023-03-31T14:50:13.493Z,98906.97
2023-03-31T14:53:23.700Z,98901.63
2023-03-31T14:56:37.940Z,98901.81
2023-03-31T14:59:41.188Z,98905.41
2023-03-31T15:02:44.766Z,98910.03
2023-03-31T15:05:49.159Z,98904.28
2023-03-31T15:08:56.800Z,98893.81
2023-03-31T15:12:02.025Z,98899.06
2023-03-31T15:15:06.840Z,98893.50
2023-03-31T15:18:12.964Z,98895.56
2023-03-31T15:21:25.547Z,98887.66
2023-03-31T15:24:31.541Z,98892.06
2023-03-31T15:31:09.690Z,98874.78
2023-03-31T15:34:15.851Z,98880.25
2023-03-31T15:37:23.803Z,98879.19
2023-03-31T15:40:33.091Z,98887.84
2023-03-31T15:43:42.361Z,98871.53
2023-03-31T15:46:49.085Z,98868.44
2023-03-31T15:49:58.270Z,98858.84
2023-03-31T15:53:02.270Z,98850.38
2023-03-31T15:56:05.291Z,98846.41
2023-03-31T15:59:25.163Z,98846.09
2023-03-31T16:02:43.363Z,98836.22
2023-03-31T16:05:56.043Z,98830.31
2023-03-31T16:09:04.335Z,98828.13
2023-03-31T16:12:18.500Z,98838.59
2023-03-31T16:15:28.602Z,98812.06
2023-03-31T16:18:36.056Z,98848.31
2023-03-31T16:21:41.961Z,98841.03
2023-03-31T16:24:44.727Z,98822.38
2023-03-31T16:27:50.856Z,98828.59
2023-03-31T16:30:54.651Z,98819.25
2023-03-31T16:33:57.768Z,98822.63
2023-03-31T16:37:00.149Z,98826.16
2023-03-31T16:40:02.838Z,98846.78
2023-03-31T16:43:11.366Z,98835.38
2023-03-31T16:46:13.819Z,98828.28
2023-03-31T16:49:16.226Z,98855.00
2023-03-31T16:52:18.544Z,98859.13
2023-03-31T16:55:20.955Z,98873.00
2023-03-31T16:58:24.372Z,98879.50
2023-03-31T17:01:27.140Z,98882.78
2023-03-31T17:04:29.773Z,98873.50
2023-03-31T17:07:33.172Z,98868.13
2023-03-31T17:10:35.847Z,98882.78
2023-03-31T17:13:39.549Z,98882.19
2023-03-31T17:16:48.172Z,98874.38
2023-03-31T17:19:51.621Z,98875.50
2023-03-31T17:22:54.284Z,98878.44
2023-03-31T17:25:57.165Z,98890.53
2023-03-31T17:29:00.722Z,98893.50
2023-03-31T17:32:03.059Z,98893.00
2023-03-31T17:35:07.062Z,98898.53
2023-03-31T17:38:12.679Z,98889.47
2023-03-31T17:41:15.520Z,98892.28
2023-03-31T17:44:17.927Z,98881.31
2023-03-31T17:47:23.863Z,98871.97
2023-03-31T17:50:27.327Z,98867.25
2023-03-31T17:53:30.308Z,98857.34
2023-03-31T17:56:32.629Z,98855.16
2023-03-31T17:59:37.565Z,98865.44
2023-03-31T18:02:41.322Z,98869.66
2023-03-31T18:05:44.647Z,98882.31
2023-03-31T18:08:47.182Z,98875.41
2023-03-31T18:11:49.570Z,98876.75
2023-03-31T18:14:54.510Z,98882.38
2023-03-31T18:17:56.835Z,98868.22
2023-03-31T18:21:03.778Z,98871.28
2023-03-31T18:24:06.513Z,98862.34
2023-03-31T18:27:08.913Z,98865.88
2023-03-31T18:30:11.974Z,98868.78
2023-03-31T18:33:14.515Z,98864.78
2023-03-31T18:36:18.844Z,98861.00
2023-03-31T18:39:21.422Z,98848.72
2023-03-31T18:42:25.786Z,98865.91
2023-03-31T18:45:30.810Z,98855.78
2023-03-31T18:48:34.907Z,98871.66
2023-03-31T18:51:37.238Z,98863.19
2023-03-31T18:54:39.653Z,98861.72
2023-03-31T18:57:42.227Z,98867.13
2023-03-31T19:00:45.387Z,98864.50
2023-03-31T19:03:47.908Z,98872.22
2023-03-31T19:06:52.427Z,98876.53
2023-03-31T19:09:54.688Z,98870.41
2023-03-31T19:12:57.215Z,98875.97
2023-03-31T19:15:59.522Z,98874.84
2023-03-31T19:19:03.900Z,98863.19
2023-03-31T19:22:06.189Z,98860.75
2023-03-31T19:25:09.137Z,98875.41
2023-03-31T19:28:16.424Z,98863.19
2023-03-31T19:31:20.656Z,98859.25
2023-03-31T19:34:23.014Z,98855.03
2023-03-31T19:37:25.836Z,98860.41
2023-03-31T19:40:28.138Z,98862.63
2023-03-31T19:43:30.971Z,98875.72
2023-03-31T19:46:34.713Z,98871.72
2023-03-31T19:49:37.181Z,98869.28
2023-03-31T19:52:39.454Z,98855.16
2023-03-31T19:55:42.554Z,98857.91
2023-03-31T19:58:45.483Z,98856.94
2023-03-31T20:01:47.919Z,98863.84
2023-03-31T20:04:50.285Z,98855.94
2023-03-31T20:07:52.611Z,98869.34
2023-03-31T20:10:59.927Z,98852.16
2023-03-31T20:14:03.313Z,98849.53
2023-03-31T20:17:08.055Z,98844.78
2023-03-31T20:20:10.752Z,98846.41
2023-03-31T20:23:13.067Z,98845.88
2023-03-31T20:26:20.855Z,98838.47
2023-03-31T20:29:24.225Z,98845.97
2023-03-31T20:32:26.471Z,98850.22
2023-03-31T20:35:29.365Z,98836.88
2023-03-31T20:38:33.051Z,98833.66
2023-03-31T20:41:37.392Z,98835.00
2023-03-31T20:44:39.774Z,98825.72
2023-03-31T20:47:42.291Z,98829.09
2023-03-31T20:50:44.871Z,98823.22
2023-03-31T20:53:49.319Z,98816.28
2023-03-31T20:56:51.913Z,98798.41
2023-03-31T20:59:54.836Z,98808.00
2023-03-31T21:02:57.442Z,98804.78
2023-03-31T21:06:05.018Z,98802.72
2023-03-31T21:09:08.036Z,98806.22
2023-03-31T21:12:10.346Z,98799.03
2023-03-31T21:15:13.217Z,98800.63
2023-03-31T21:18:16.813Z,98780.38
2023-03-31T21:21:19.585Z,98789.16
2023-03-31T21:24:22.552Z,98791.53
2023-03-31T21:27:24.825Z,98787.56
2023-03-31T21:30:27.156Z,98776.34
2023-03-31T21:33:30.839Z,98782.47
2023-03-31T21:36:33.148Z,98786.97
2023-03-31T21:39:35.482Z,98785.13
2023-03-31T21:42:38.097Z,98776.56
2023-03-31T21:45:40.882Z,98774.22
2023-03-31T21:48:43.747Z,98781.97
2023-03-31T21:51:46.296Z,98783.06
2023-03-31T21:54:48.656Z,98787.28
2023-03-31T21:57:50.994Z,98780.94
2023-03-31T22:00:55.483Z,98787.84
2023-03-31T22:03:59.156Z,98798.28
2023-03-31T22:07:01.393Z,98802.84
2023-03-31T22:10:04.924Z,98804.69
2023-03-31T22:13:07.302Z,98787.63
2023-03-31T22:16:21.628Z,98809.22
2023-03-31T22:19:24.037Z,98801.78
2023-03-31T22:22:26.613Z,98793.47
2023-03-31T22:25:28.863Z,98800.44
2023-03-31T22:28:31.166Z,98799.63
2023-03-31T22:31:33.541Z,98778.81
2023-03-31T22:34:36.201Z,98783.63
2023-03-31T22:37:38.843Z,98796.97
2023-03-31T22:40:41.159Z,98789.22
2023-03-31T22:43:45.890Z,98777.75
2023-03-31T22:46:50.034Z,98772.41
2023-03-31T22:49:52.417Z,98785.75
2023-03-31T22:52:54.743Z,98781.75
2023-03-31T22:55:57.041Z,98784.69
2023-03-31T22:58:59.416Z,98784.72
2023-03-31T23:02:01.860Z,98771.63
2023-03-31T23:05:04.310Z,98775.59
2023-03-31T23:08:06.558Z,98782.81
2023-03-31T23:11:11.952Z,98781.75
2023-03-31T23:14:14.188Z,98761.22
2023-03-31T23:17:16.540Z,98768.13
2023-03-31T23:20:18.816Z,98754.25
2023-03-31T23:23:21.255Z,98770.53
2023-03-31T23:26:25.523Z,98761.75
2023-03-31T23:29:28.122Z,98761.72
2023-03-31T23:32:30.518Z,98752.91
2023-03-31T23:35:33.116Z,98764.41
2023-03-31T23:38:36.023Z,98770.28
2023-03-31T23:41:38.304Z,98761.44
2023-03-31T23:44:40.589Z,98758.78
2023-03-31T23:47:42.958Z,98775.03
2023-03-31T23:50:45.662Z,98777.97
2023-03-31T23:53:47.980Z,98779.47
2023-03-31T23:56:50.359Z,98777.16
2023-03-31T23:59:52.765Z,98780.59
